Home > Products > Valid Products > TAF

000
FTUS43 KFSD 270520
TAFSUX
TAF
KSUX 270520Z 2706/2806 VRB03KT P6SM SCT200
     FM271000 VRB03KT 5SM BR SCT010
      TEMPO 2710/2714 2SM BR
     FM271500 13005KT P6SM SCT100
     FM272000 14010KT P6SM SCT100=



000
FTUS43 KFSD 270520
TAFFSD
TAF
KFSD 270520Z 2706/2806 VRB03KT P6SM SCT200
     FM271000 VRB03KT 5SM BR SCT010
      TEMPO 2710/2714 2SM BR
     FM271500 14005KT P6SM SCT100
     FM271900 15010KT P6SM SCT100=



000
FTUS43 KFSD 270520
TAFSUX
TAF
KSUX 270520Z 2706/2806 VRB03KT P6SM SCT200
     FM271000 VRB03KT 5SM BR SCT010
      TEMPO 2710/2714 2SM BR
     FM271500 13005KT P6SM SCT100
     FM272000 14010KT P6SM SCT100=



000
FTUS43 KFSD 270520
TAFHON
TAF
KHON 270520Z 2706/2806 VRB03KT P6SM SCT200
     FM271000 13004KT 4SM BR SCT100
     FM271400 14007KT P6SM SCT100
     FM271700 15012KT P6SM SCT100
     FM280100 15008KT P6SM SCT100 BKN250=



000
FTUS43 KFSD 262333
TAFSUX
TAF
KSUX 262333Z 2700/2724 32008KT P6SM SCT250
     FM270500 VRB03KT P6SM SCT250
     FM271000 VRB03KT 4SM BR SCT250
     FM271500 13005KT P6SM SCT100
     FM272000 15010KT P6SM SCT100=



000
FTUS43 KFSD 262333
TAFSUX
TAF
KSUX 262333Z 2700/2724 32008KT P6SM SCT250
     FM270500 VRB03KT P6SM SCT250
     FM271000 VRB03KT 4SM BR SCT250
     FM271500 13005KT P6SM SCT100
     FM272000 15010KT P6SM SCT100=



000
FTUS43 KFSD 262333
TAFFSD
TAF
KFSD 262333Z 2700/2724 31007KT P6SM SCT250
     FM270400 VRB03KT P6SM SCT100
     FM271000 VRB03KT 4SM BR SCT010
     FM271500 14006KT P6SM SCT100
     FM271900 15010KT P6SM SCT100=



000
FTUS43 KFSD 262333
TAFHON
TAF
KHON 262333Z 2700/2724 32005KT P6SM SCT250
     FM270200 VRB03KT P6SM SCT250
     FM271000 13004KT 4SM BR SCT100
     FM271500 15008KT P6SM SCT100
     FM271700 15012KT P6SM SCT100=



000
FTUS43 KFSD 261723
TAFFSD
TAF
KFSD 261723Z 2618/2718 31015G24KT P6SM FEW250
     FM262300 32007KT P6SM FEW250
     FM270500 VRB03KT P6SM SCT100
     FM270900 VRB03KT 5SM BR SCT010
     FM271500 15007KT P6SM SCT100=



000
FTUS43 KFSD 261723
TAFSUX
TAF
KSUX 261723Z 2618/2718 31015G24KT P6SM FEW250
     FM262300 32007KT P6SM FEW250
     FM270600 VRB03KT P6SM SCT100
     FM270900 VRB03KT 5SM BR SCT100
     FM271500 15007KT P6SM SCT100=



000
FTUS43 KFSD 261723
TAFSUX
TAF
KSUX 261723Z 2618/2718 31015G24KT P6SM FEW250
     FM262300 32007KT P6SM FEW250
     FM270600 VRB03KT P6SM SCT100
     FM270900 VRB03KT 5SM BR SCT100
     FM271500 15007KT P6SM SCT100=



000
FTUS43 KFSD 261723
TAFHON
TAF
KHON 261723Z 2618/2718 31015G24KT P6SM FEW250
     FM262300 32007KT P6SM FEW250
     FM270300 VRB03KT P6SM SCT100
     FM270900 VRB03KT 5SM BR SCT100
     FM271500 15007KT P6SM SCT100=



000
FTUS43 KFSD 261120
TAFSUX
TAF
KSUX 261120Z 2612/2712 25009KT P6SM SCT100
     FM261500 32014G21KT P6SM SKC
     FM261800 32017G25KT P6SM SKC
     FM262300 31009KT P6SM SKC
     FM270700 VRB04KT P6SM SKC=



000
FTUS43 KFSD 261120
TAFFSD
TAF
KFSD 261120Z 2612/2712 27010KT P6SM BKN080
     FM261400 31014G20KT P6SM SKC
     FM261700 32017G24KT P6SM SKC
     FM262300 32008KT P6SM SKC
     FM270500 VRB04KT P6SM SCT120=



000
FTUS43 KFSD 261120
TAFHON
TAF
KHON 261120Z 2612/2712 30012KT P6SM SCT100
     FM261600 31015G22KT P6SM SCT080
     FM262300 32007KT P6SM SCT060
     FM270300 VRB03KT P6SM SCT120=



000
FTUS43 KFSD 261120
TAFSUX
TAF
KSUX 261120Z 2612/2712 25009KT P6SM SCT100
     FM261500 32014G21KT P6SM SKC
     FM261800 32017G25KT P6SM SKC
     FM262300 31009KT P6SM SKC
     FM270700 VRB04KT P6SM SKC=



000
FTUS43 KFSD 260532
TAFSUX
TAF
KSUX 260532Z 2606/2706 17005KT P6SM BKN100
     FM261300 31008KT P6SM SCT100
     FM261600 32015G22KT P6SM FEW100
     FM270000 32008KT P6SM SKC=



000
FTUS43 KFSD 260532
TAFFSD
TAF
KFSD 260532Z 2606/2706 21006KT P6SM SCT030 BKN100
     FM261200 27008KT P6SM BKN100
     FM261600 31014G20KT P6SM SKC
     FM262300 31008KT P6SM FEW120
     FM270400 VRB03KT P6SM SCT120=



000
FTUS43 KFSD 260532
TAFHON
TAF
KHON 260532Z 2606/2706 20008KT P6SM SCT100
     FM261000 26008KT P6SM SCT100
     FM261400 30012KT P6SM SKC
     FM261600 31014G20KT P6SM SKC
     FM262300 31007KT P6SM FEW120
     FM270300 VRB03KT P6SM SCT120=



000
FTUS43 KFSD 260532
TAFSUX
TAF
KSUX 260532Z 2606/2706 17005KT P6SM BKN100
     FM261300 31008KT P6SM SCT100
     FM261600 32015G22KT P6SM FEW100
     FM270000 32008KT P6SM SKC=



000
FTUS43 KFSD 260432 AAB
TAFFSD
TAF AMD
KFSD 260432Z 2605/2624 VRB03KT P6SM BKN022
     FM260600 20004KT P6SM SCT030 BKN100
     FM261200 27008KT P6SM SCT100
     FM261500 31014G20KT P6SM SKC
     FM262200 31008KT P6SM FEW120=



000
FTUS43 KFSD 260114 AAA
TAFFSD
TAF AMD
KFSD 260114Z 2601/2624 VRB03KT P6SM BKN009
      TEMPO 2601/2604 SCT009 BKN030
     FM260400 20004KT P6SM SCT030 BKN100
     FM261200 27008KT P6SM SCT100
     FM261500 31014G20KT P6SM SKC
     FM262200 31008KT P6SM FEW120=



000
FTUS43 KFSD 252330
TAFHON
TAF
KHON 252330Z 2600/2624 VRB03KT P6SM BKN025
      TEMPO 2600/2603 SCT025
     FM260300 17006KT P6SM SCT070 BKN100
     FM260900 26008KT P6SM SCT100
     FM261200 30014G20KT P6SM SKC
     FM262200 31006KT P6SM FEW120=



000
FTUS43 KFSD 252330
TAFFSD
TAF
KFSD 252330Z 2600/2624 VRB03KT P6SM BKN028
      TEMPO 2600/2604 SCT028 BKN050
     FM260400 20004KT P6SM SCT030 BKN100
     FM261200 27008KT P6SM SCT100
     FM261500 31014G20KT P6SM SKC
     FM262200 31008KT P6SM FEW120=



000
FTUS43 KFSD 252330
TAFSUX
TAF
KSUX 252330Z 2600/2624 VRB03KT P6SM BKN020
      TEMPO 2601/2603 SCT020 BKN050
     FM260300 VRB03KT P6SM SCT030 BKN150
     FM260600 16006KT P6SM SCT150
     FM261300 31010KT P6SM SKC
     FM261600 32014G20KT P6SM SKC
     FM262200 32008KT P6SM SKC=



000
FTUS43 KFSD 252330
TAFSUX
TAF
KSUX 252330Z 2600/2624 VRB03KT P6SM BKN020
      TEMPO 2601/2603 SCT020 BKN050
     FM260300 VRB03KT P6SM SCT030 BKN150
     FM260600 16006KT P6SM SCT150
     FM261300 31010KT P6SM SKC
     FM261600 32014G20KT P6SM SKC
     FM262200 32008KT P6SM SKC=



000
FTUS43 KFSD 252214 AAB
TAFSUX
TAF AMD
KSUX 252214Z 2522/2618 32006KT P6SM BKN012
      TEMPO 2522/2524 SCT012 OVC025
     FM260000 31004KT P6SM BKN025
     FM260200 VRB03KT P6SM SCT025 BKN150
     FM260600 18009KT P6SM SCT150
     FM261100 26010KT P6SM SKC
     FM261400 31015G22KT P6SM SKC=



000
FTUS43 KFSD 252214 AAB
TAFSUX
TAF AMD
KSUX 252214Z 2522/2618 32006KT P6SM BKN012
      TEMPO 2522/2524 SCT012 OVC025
     FM260000 31004KT P6SM BKN025
     FM260200 VRB03KT P6SM SCT025 BKN150
     FM260600 18009KT P6SM SCT150
     FM261100 26010KT P6SM SKC
     FM261400 31015G22KT P6SM SKC=



000
FTUS43 KFSD 252211 AAB
TAFHON
TAF AMD
KHON 252211Z 2522/2618 VRB03KT P6SM SCT025
      TEMPO 2522/2524 BKN025
     FM260200 18006KT P6SM BKN100
     FM260800 26012KT P6SM BKN100
     FM261100 31014G20KT P6SM SKC=



000
FTUS43 KFSD 252104 AAA
TAFSUX
TAF AMD
KSUX 252104Z 2521/2618 33007KT P6SM OVC020
     FM260200 VRB03KT P6SM SCT025 BKN150
     FM260600 18009KT P6SM SCT150
     FM261100 26010KT P6SM SKC
     FM261400 31015G22KT P6SM SKC=



000
FTUS43 KFSD 252104 AAA
TAFSUX
TAF AMD
KSUX 252104Z 2521/2618 33007KT P6SM OVC020
     FM260200 VRB03KT P6SM SCT025 BKN150
     FM260600 18009KT P6SM SCT150
     FM261100 26010KT P6SM SKC
     FM261400 31015G22KT P6SM SKC=



000
FTUS43 KFSD 252103 AAA
TAFHON
TAF AMD
KHON 252103Z 2521/2618 VRB03KT P6SM BKN007 OVC025
     FM252230 VRB04KT P6SM BKN025
     FM260100 18007KT P6SM SCT025 BKN100
     FM260800 26012KT P6SM BKN100
     FM261100 31014G20KT P6SM SKC=



000
FTUS43 KFSD 251852 AAB
TAFFSD
TAF AMD
KFSD 251852Z 2519/2618 36005KT P6SM OVC008
      TEMPO 2520/2524 OVC012
     FM260000 VRB03KT P6SM BKN025
     FM260200 20004KT P6SM SCT025 BKN100
     FM261000 27010KT P6SM SCT100
     FM261400 31014G20KT P6SM SKC=



000
FTUS43 KFSD 251753 AAA
TAFFSD
TAF AMD
KFSD 251753Z 2518/2618 36005KT P6SM OVC012
     FM260000 VRB03KT P6SM BKN025
     FM260200 20004KT P6SM SCT025 BKN100
     FM261000 27010KT P6SM SCT100
     FM261400 31014G20KT P6SM SKC=



000
FTUS43 KFSD 251730
TAFFSD
TAF
KFSD 251730Z 2518/2618 36005KT P6SM BKN008 OVC035
     FM260000 VRB03KT P6SM BKN025
     FM260200 20004KT P6SM SCT025 BKN100
     FM261000 27010KT P6SM SCT100
     FM261400 31014G20KT P6SM SKC=



000
FTUS43 KFSD 251730
TAFSUX
TAF
KSUX 251730Z 2518/2618 35011KT P6SM OVC012
     FM260000 VRB04KT P6SM BKN025
     FM260200 VRB03KT P6SM SCT025 BKN150
     FM260600 18009KT P6SM SCT150
     FM261100 26010KT P6SM SKC
     FM261400 31015G22KT P6SM SKC=



000
FTUS43 KFSD 251730
TAFHON
TAF
KHON 251730Z 2518/2618 34005KT P6SM BKN007 OVC025
      TEMPO 2518/2520 SCT008
     FM252000 VRB04KT P6SM BKN025
     FM260100 18007KT P6SM SCT025 BKN100
     FM260800 26012KT P6SM BKN100
     FM261100 31014G20KT P6SM SKC=



000
FTUS43 KFSD 251513 AAB
TAFFSD
TAF AMD
KFSD 251513Z 2515/2612 36010KT P6SM OVC006
      TEMPO 2515/2517 4SM -SN BR OVC004
     FM252100 31007KT P6SM OVC012
     FM260200 VRB03KT P6SM BKN025 OVC080=



000
FTUS43 KFSD 251455 AAA
TAFHON
TAF AMD
KHON 251455Z 2515/2612 36009KT P6SM SCT007 OVC025
      TEMPO 2515/2518 BKN007
     FM252000 30006KT P6SM SCT040 BKN200
     FM260300 16005KT P6SM BKN100
     FM261000 27007KT P6SM BKN080=



000
FTUS43 KFSD 251120
TAFHON
TAF
KHON 251120Z 2512/2612 34012G16KT P6SM OVC010
     FM251400 33009KT P6SM OVC010
     FM252000 30006KT P6SM SCT040 BKN200
     FM260300 16005KT P6SM BKN100
     FM261000 27007KT P6SM BKN080=



000
FTUS43 KFSD 251120
TAFSUX
TAF
KSUX 251120Z 2512/2612 34015G22KT P6SM OVC009
      TEMPO 2512/2514 4SM -SN
     FM251700 34015G22KT P6SM BKN025
     FM252200 34010KT P6SM SCT040 BKN250
     FM260300 VRB03KT P6SM SCT100 BKN200=



000
FTUS43 KFSD 251120
TAFFSD
TAF
KFSD 251120Z 2512/2612 36015G22KT P6SM OVC008
     FM251600 34012G16KT P6SM OVC009
     FM252100 31007KT P6SM OVC012
     FM260200 VRB03KT P6SM BKN025 OVC080=



000
FTUS43 KFSD 251120
TAFSUX
TAF
KSUX 251120Z 2512/2612 34015G22KT P6SM OVC009
      TEMPO 2512/2514 4SM -SN
     FM251700 34015G22KT P6SM BKN025
     FM252200 34010KT P6SM SCT040 BKN250
     FM260300 VRB03KT P6SM SCT100 BKN200=



000
FTUS43 KFSD 251023 AAA
TAFSUX
TAF AMD
KSUX 251023Z 2510/2606 33015G24KT 4SM -SN OVC010
     FM251200 34020G28KT P6SM OVC010
     FM251700 34015G22KT P6SM BKN025
     FM252200 34010KT P6SM SCT040 BKN250
     FM260300 VRB03KT P6SM SCT100 BKN200=



000
FTUS43 KFSD 251023 AAA
TAFSUX
TAF AMD
KSUX 251023Z 2510/2606 33015G24KT 4SM -SN OVC010
     FM251200 34020G28KT P6SM OVC010
     FM251700 34015G22KT P6SM BKN025
     FM252200 34010KT P6SM SCT040 BKN250
     FM260300 VRB03KT P6SM SCT100 BKN200=



000
FTUS43 KFSD 250550
TAFSUX
TAF
KSUX 250550Z 2506/2606 32020G28KT P6SM -RA OVC015
     FM250800 33022G30KT 4SM -SN OVC010
      TEMPO 2508/2510 2SM -SN OVC007
     FM251200 34020G28KT P6SM OVC010
     FM251700 34015G22KT P6SM BKN025
     FM252200 34010KT P6SM SCT040 BKN250
     FM260300 VRB03KT P6SM SCT100 BKN200=



000
FTUS43 KFSD 250550
TAFFSD
TAF
KFSD 250550Z 2506/2606 01018G25KT 3SM -SN OVC008
      TEMPO 2506/2508 1SM -SN OVC005
     FM250800 36018G25KT 5SM -SN OVC008
     FM251000 36015G22KT P6SM OVC010
     FM251500 34012KT P6SM BKN025
     FM252100 31007KT P6SM SCT035 BKN250
     FM260200 VRB03KT P6SM BKN100=



000
FTUS43 KFSD 250550
TAFHON
TAF
KHON 250550Z 2506/2606 35015G22KT 3SM -SN OVC006
     FM250800 35014G20KT 6SM -SN OVC008
     FM251000 34012G16KT P6SM OVC010
     FM251400 33009KT P6SM BKN025
     FM252000 30006KT P6SM SCT040 BKN200
     FM260300 16005KT P6SM BKN100=



000
FTUS43 KFSD 250550
TAFSUX
TAF
KSUX 250550Z 2506/2606 32020G28KT P6SM -RA OVC015
     FM250800 33022G30KT 4SM -SN OVC010
      TEMPO 2508/2510 2SM -SN OVC007
     FM251200 34020G28KT P6SM OVC010
     FM251700 34015G22KT P6SM BKN025
     FM252200 34010KT P6SM SCT040 BKN250
     FM260300 VRB03KT P6SM SCT100 BKN200=



000
FTUS43 KFSD 250500 AAA
TAFSUX
TAF AMD
KSUX 250500Z 2505/2524 30014G20KT P6SM -RA BKN018
     FM250800 34020G28KT 4SM -SN OVC010
     FM251000 34022G30KT 2SM -SN OVC010
     FM251300 34020G30KT 5SM -SN OVC012
     FM251700 34018G25KT P6SM OVC025
     FM252200 34012KT P6SM SCT040 BKN250=



000
FTUS43 KFSD 250500 AAA
TAFSUX
TAF AMD
KSUX 250500Z 2505/2524 30014G20KT P6SM -RA BKN018
     FM250800 34020G28KT 4SM -SN OVC010
     FM251000 34022G30KT 2SM -SN OVC010
     FM251300 34020G30KT 5SM -SN OVC012
     FM251700 34018G25KT P6SM OVC025
     FM252200 34012KT P6SM SCT040 BKN250=



000
FTUS43 KFSD 250459 AAF
TAFFSD
TAF AMD
KFSD 250459Z 2505/2524 01014G20KT 3SM -RA BR OVC008
      TEMPO 2505/2508 1SM -SN
     FM250800 36018G25KT 5SM -SN OVC009
     FM251200 36015G22KT P6SM OVC015
     FM251600 35014KT P6SM BKN030
     FM252200 31005KT P6SM SCT040 BKN250=



000
FTUS43 KFSD 250458 AAE
TAFHON
TAF AMD
KHON 250458Z 2505/2524 35018G25KT 3SM -SN OVC007
     FM250800 36018G25KT 6SM -SN OVC009
     FM251000 35014G20KT P6SM OVC015
     FM251900 32008KT P6SM BKN030
     FM252200 VRB03KT P6SM SCT050 BKN200=



000
FTUS43 KFSD 250406 AAE
TAFFSD
TAF AMD
KFSD 250406Z 2504/2524 36012G16KT 5SM -RA BR OVC007
      TEMPO 2504/2505 3SM -RASN
     FM250500 01018G25KT 3SM -SN OVC007
      TEMPO 2505/2508 1SM -SN OVC005
     FM250800 36018G25KT 5SM -SN OVC009
     FM251200 36015G22KT P6SM OVC015
     FM251600 35014KT P6SM BKN030
     FM252200 31005KT P6SM SCT040 BKN250=



000
FTUS43 KFSD 250325 AAD
TAFHON
TAF AMD
KHON 250325Z 2503/2524 35018G25KT 3SM -SN OVC005
      TEMPO 2504/2507 1SM -SN SCT005 OVC008
     FM250700 36018G25KT 5SM -SN OVC008
     FM251000 35014G20KT P6SM OVC015
     FM251900 32008KT P6SM BKN030
     FM252200 VRB03KT P6SM SCT050 BKN200=



000
FTUS43 KFSD 250302 AAC
TAFHON
TAF AMD
KHON 250302Z 2503/2524 36018G25KT 6SM -RASN OVC005
      TEMPO 2503/2504 3SM -RASN
     FM250400 36018G25KT 2SM -SN SCT005 OVC010
      TEMPO 2504/2507 3/4SM -SN OVC005
     FM250700 36018G25KT 4SM -SN OVC010
     FM251000 35014G20KT P6SM OVC015
     FM251900 32008KT P6SM BKN030
     FM252200 VRB03KT P6SM SCT050 BKN200=



000
FTUS43 KFSD 250211 AAB
TAFHON
TAF AMD
KHON 250211Z 2502/2524 31015G22KT P6SM -RA SCT008 OVC018
     FM250400 33018G25KT 1SM -SN OVC010
     FM250700 34018G25KT 4SM -SN OVC012
     FM251000 34014G20KT P6SM OVC015
     FM251900 32008KT P6SM BKN030
     FM252200 VRB03KT P6SM SCT050 BKN200=



000
FTUS43 KFSD 250116 AAA
TAFHON
TAF AMD
KHON 250116Z 2501/2524 31012G18KT P6SM -RA OVC022
     FM250400 33018G25KT 1SM -SN OVC012
     FM250700 34018G25KT 4SM -SN OVC012
     FM251000 34014G20KT P6SM OVC015
     FM251900 32008KT P6SM BKN030
     FM252200 VRB03KT P6SM SCT050 BKN200=



000
FTUS43 KFSD 250116 AAA
TAFHON
TAF AMD
KHON 250116Z 2501/2524 31012G18KT P6SM -RA OVC022
     FM250400 33018G25KT 1SM -SN OVC012
     FM250700 34018G25KT 4SM -SN OVC012
     FM251000 34014G20KT P6SM OVC015
     FM251900 32008KT P6SM BKN030
     FM252200 VRB03KT P6SM SCT050 BKN200=



000
FTUS43 KFSD 242330
TAFFSD
TAF
KFSD 242330Z 2500/2524 24005KT P6SM -RA BKN040
     FM250300 31012KT P6SM -RA OVC025
     FM250500 34015G22KT 3SM -SN OVC015
     FM250700 35018G25KT 3SM -SN OVC012
     FM251300 36015G22KT 6SM -SN OVC015
     FM251600 35014KT P6SM BKN030
     FM252200 31005KT P6SM SCT040 BKN250=



000
FTUS43 KFSD 242330
TAFHON
TAF
KHON 242330Z 2500/2524 30010KT P6SM -RA OVC030
     FM250200 32018G25KT P6SM -RA OVC020
     FM250400 33020G28KT 3SM -SN OVC010
     FM251000 34014G20KT P6SM OVC015
     FM251900 32008KT P6SM BKN030
     FM252200 VRB03KT P6SM SCT050 BKN200=



000
FTUS43 KFSD 242330
TAFSUX
TAF
KSUX 242330Z 2500/2524 24006KT P6SM -RA BKN050
     FM250400 32014G20KT P6SM -RA OVC030
     FM250800 33020G28KT 4SM -SN OVC020
     FM251000 34022G30KT 2SM -SN OVC015
     FM251300 34020G30KT 5SM -SN OVC015
     FM251700 34018G25KT P6SM OVC025
     FM252200 34012KT P6SM SCT040 BKN250=



000
FTUS43 KFSD 242330
TAFSUX
TAF
KSUX 242330Z 2500/2524 24006KT P6SM -RA BKN050
     FM250400 32014G20KT P6SM -RA OVC030
     FM250800 33020G28KT 4SM -SN OVC020
     FM251000 34022G30KT 2SM -SN OVC015
     FM251300 34020G30KT 5SM -SN OVC015
     FM251700 34018G25KT P6SM OVC025
     FM252200 34012KT P6SM SCT040 BKN250=



000
FTUS43 KFSD 241730
TAFHON
TAF
KHON 241730Z 2418/2518 28011KT P6SM OVC100
     FM242200 29011KT P6SM -RA OVC040
     FM250130 32016G28KT P6SM -RA OVC025
     FM250400 34018G28KT 3SM -SN OVC012
     FM251200 34013KT P6SM BKN012=



000
FTUS43 KFSD 241730
TAFSUX
TAF
KSUX 241730Z 2418/2518 27010KT P6SM OVC150
     FM250000 29009KT P6SM -RA OVC050
     FM250400 32015G25KT P6SM -RA OVC035
     FM250700 33023G33KT P6SM -RA OVC020
     FM251100 34022G33KT 4SM -SN OVC020=



000
FTUS43 KFSD 241730
TAFFSD
TAF
KFSD 241730Z 2418/2518 27009KT P6SM OVC150
     FM242300 28008KT P6SM -RA OVC040
     FM250300 32012G19KT P6SM -RA OVC020
     FM250500 34016G26KT P6SM -RA OVC012
     FM250700 35018G28KT 3SM -SN OVC012
     FM251300 36015KT 6SM -SN BKN025=



000
FTUS43 KFSD 241730
TAFSUX
TAF
KSUX 241730Z 2418/2518 27010KT P6SM OVC150
     FM250000 29009KT P6SM -RA OVC050
     FM250400 32015G25KT P6SM -RA OVC035
     FM250700 33023G33KT P6SM -RA OVC020
     FM251100 34022G33KT 4SM -SN OVC020=



000
FTUS43 KFSD 241123
TAFSUX
TAF
KSUX 241123Z 2412/2512 31009KT P6SM SKC
     FM241400 29012G20KT P6SM SCT120
     FM250300 32019G30KT P6SM BKN030=



000
FTUS43 KFSD 241123
TAFHON
TAF
KHON 241123Z 2412/2512 27007KT P6SM SCT150
     FM241700 29012G17KT P6SM BKN060
     FM242200 29014KT 5SM -RA BKN035
     FM250130 31018G29KT P6SM -RA OVC025
     FM250800 32015G25KT P6SM OVC012=



000
FTUS43 KFSD 241123
TAFFSD
TAF
KFSD 241123Z 2412/2512 30008KT P6SM FEW150
     FM241600 28011G16KT P6SM SCT150
     FM242300 30012KT P6SM -RA BKN035
     FM250300 30014G23KT P6SM OVC020
      TEMPO 2507/2510 4SM -RASN=



    US Dept of Commerce
    National Oceanic and Atmospheric Administration
    National Weather Service
    1325 East West Highway
    Silver Spring, MD 20910
    Page Author: NWS Internet Services Team
Disclaimer
Information Quality
Credits
Glossary
Privacy Policy
Freedom of Information Act (FOIA)
About Us
Career Opportunities